sensor_id;sensor_type;location;lat;lon;timestamp;temperature;humidity
2723;DHT22;1369;53.216;10.396;2023-11-18T00:00:27;5.00;99.90
2723;DHT22;1369;53.216;10.396;2023-11-18T00:02:53;5.10;99.90
2723;DHT22;1369;53.216;10.396;2023-11-18T00:05:18;5.10;99.90
2723;DHT22;1369;53.216;10.396;2023-11-18T00:07:44;5.00;99.90
2723;DHT22;1369;53.216;10.396;2023-11-18T00:10:10;5.10;99.90
2723;DHT22;1369;53.216;10.396;2023-11-18T00:12:36;5.10;99.90
2723;DHT22;1369;53.216;10.396;2023-11-18T00:15:03;5.00;99.90
2723;DHT22;1369;53.216;10.396;2023-11-18T00:17:30;5.10;99.90
2723;DHT22;1369;53.216;10.396;2023-11-18T00:19:56;5.00;99.90
2723;DHT22;1369;53.216;10.396;2023-11-18T00:22:21;5.00;99.90
2723;DHT22;1369;53.216;10.396;2023-11-18T00:24:47;5.00;99.90
2723;DHT22;1369;53.216;10.396;2023-11-18T00:27:12;4.90;99.90
2723;DHT22;1369;53.216;10.396;2023-11-18T00:29:40;4.90;99.90
2723;DHT22;1369;53.216;10.396;2023-11-18T00:32:06;4.80;99.90
2723;DHT22;1369;53.216;10.396;2023-11-18T00:34:33;4.80;99.90
2723;DHT22;1369;53.216;10.396;2023-11-18T00:36:58;5.00;99.90
2723;DHT22;1369;53.216;10.396;2023-11-18T00:39:24;5.10;99.90
2723;DHT22;1369;53.216;10.396;2023-11-18T00:41:50;5.50;99.90
2723;DHT22;1369;53.216;10.396;2023-11-18T00:44:16;5.00;99.90
2723;DHT22;1369;53.216;10.396;2023-11-18T00:46:41;4.90;99.90
2723;DHT22;1369;53.216;10.396;2023-11-18T00:49:07;5.20;99.90
2723;DHT22;1369;53.216;10.396;2023-11-18T00:51:33;5.20;99.90
2723;DHT22;1369;53.216;10.396;2023-11-18T00:53:59;5.00;99.90
2723;DHT22;1369;53.216;10.396;2023-11-18T00:56:27;5.40;99.90
2723;DHT22;1369;53.216;10.396;2023-11-18T00:58:54;5.10;99.90
2723;DHT22;1369;53.216;10.396;2023-11-18T01:01:20;5.20;99.90
2723;DHT22;1369;53.216;10.396;2023-11-18T01:03:48;5.20;99.90
2723;DHT22;1369;53.216;10.396;2023-11-18T01:06:13;5.60;99.90
2723;DHT22;1369;53.216;10.396;2023-11-18T01:08:43;5.20;99.90
2723;DHT22;1369;53.216;10.396;2023-11-18T01:11:09;5.20;99.90
2723;DHT22;1369;53.216;10.396;2023-11-18T01:13:35;5.20;99.90
2723;DHT22;1369;53.216;10.396;2023-11-18T01:16:01;5.40;99.90
2723;DHT22;1369;53.216;10.396;2023-11-18T01:18:27;5.20;99.90
2723;DHT22;1369;53.216;10.396;2023-11-18T01:20:53;5.20;99.90
2723;DHT22;1369;53.216;10.396;2023-11-18T01:23:19;5.10;99.90
2723;DHT22;1369;53.216;10.396;2023-11-18T01:25:44;5.10;99.90
2723;DHT22;1369;53.216;10.396;2023-11-18T01:28:10;5.50;99.90
2723;DHT22;1369;53.216;10.396;2023-11-18T01:30:35;5.00;99.90
2723;DHT22;1369;53.216;10.396;2023-11-18T01:33:01;5.10;99.90
2723;DHT22;1369;53.216;10.396;2023-11-18T01:35:28;5.10;99.90
2723;DHT22;1369;53.216;10.396;2023-11-18T01:37:54;5.10;99.90
2723;DHT22;1369;53.216;10.396;2023-11-18T01:40:23;5.10;99.90
2723;DHT22;1369;53.216;10.396;2023-11-18T01:42:49;5.20;99.90
2723;DHT22;1369;53.216;10.396;2023-11-18T01:45:15;5.10;99.90
2723;DHT22;1369;53.216;10.396;2023-11-18T01:47:43;5.10;99.90
2723;DHT22;1369;53.216;10.396;2023-11-18T01:50:10;5.10;99.90
2723;DHT22;1369;53.216;10.396;2023-11-18T01:52:38;5.00;99.90
2723;DHT22;1369;53.216;10.396;2023-11-18T01:55:05;5.10;99.90
2723;DHT22;1369;53.216;10.396;2023-11-18T01:57:35;5.10;99.90
2723;DHT22;1369;53.216;10.396;2023-11-18T02:00:02;5.10;99.90
2723;DHT22;1369;53.216;10.396;2023-11-18T02:02:32;5.10;99.90
2723;DHT22;1369;53.216;10.396;2023-11-18T02:04:59;5.10;99.90
2723;DHT22;1369;53.216;10.396;2023-11-18T02:07:28;5.10;99.90
2723;DHT22;1369;53.216;10.396;2023-11-18T02:09:54;5.10;99.90
2723;DHT22;1369;53.216;10.396;2023-11-18T02:12:37;5.10;99.90
2723;DHT22;1369;53.216;10.396;2023-11-18T02:15:06;5.10;99.90
2723;DHT22;1369;53.216;10.396;2023-11-18T02:17:38;5.10;99.90
2723;DHT22;1369;53.216;10.396;2023-11-18T02:20:05;5.10;99.90
2723;DHT22;1369;53.216;10.396;2023-11-18T02:22:44;5.20;99.90
2723;DHT22;1369;53.216;10.396;2023-11-18T02:25:16;5.20;99.90
2723;DHT22;1369;53.216;10.396;2023-11-18T02:27:42;5.50;99.90
2723;DHT22;1369;53.216;10.396;2023-11-18T02:30:09;5.70;99.90
2723;DHT22;1369;53.216;10.396;2023-11-18T02:33:09;5.10;99.90
2723;DHT22;1369;53.216;10.396;2023-11-18T02:35:48;5.20;99.90
2723;DHT22;1369;53.216;10.396;2023-11-18T02:38:19;5.30;99.90
2723;DHT22;1369;53.216;10.396;2023-11-18T02:40:51;5.20;99.90
2723;DHT22;1369;53.216;10.396;2023-11-18T02:43:18;5.10;99.90
2723;DHT22;1369;53.216;10.396;2023-11-18T02:45:44;5.40;99.90
2723;DHT22;1369;53.216;10.396;2023-11-18T02:48:12;5.50;99.90
2723;DHT22;1369;53.216;10.396;2023-11-18T02:50:37;5.10;99.90
2723;DHT22;1369;53.216;10.396;2023-11-18T02:53:03;5.30;99.90
2723;DHT22;1369;53.216;10.396;2023-11-18T02:55:29;5.20;99.90
2723;DHT22;1369;53.216;10.396;2023-11-18T02:57:55;5.20;99.90
2723;DHT22;1369;53.216;10.396;2023-11-18T03:00:21;5.20;99.90
2723;DHT22;1369;53.216;10.396;2023-11-18T03:02:47;5.20;99.90
2723;DHT22;1369;53.216;10.396;2023-11-18T03:05:14;5.20;99.90
2723;DHT22;1369;53.216;10.396;2023-11-18T03:07:44;5.20;99.90
2723;DHT22;1369;53.216;10.396;2023-11-18T03:10:12;5.20;99.90
2723;DHT22;1369;53.216;10.396;2023-11-18T03:12:53;5.10;99.90
2723;DHT22;1369;53.216;10.396;2023-11-18T03:15:19;5.20;99.90
2723;DHT22;1369;53.216;10.396;2023-11-18T03:17:46;5.70;99.90
2723;DHT22;1369;53.216;10.396;2023-11-18T03:20:14;5.50;99.90
2723;DHT22;1369;53.216;10.396;2023-11-18T03:22:40;5.20;99.90
2723;DHT22;1369;53.216;10.396;2023-11-18T03:25:06;5.60;99.90
2723;DHT22;1369;53.216;10.396;2023-11-18T03:27:33;5.20;99.90
2723;DHT22;1369;53.216;10.396;2023-11-18T03:29:59;5.20;99.90
2723;DHT22;1369;53.216;10.396;2023-11-18T03:32:24;5.20;99.90
2723;DHT22;1369;53.216;10.396;2023-11-18T03:34:50;5.20;99.90
2723;DHT22;1369;53.216;10.396;2023-11-18T03:37:15;5.20;99.90
2723;DHT22;1369;53.216;10.396;2023-11-18T03:39:41;5.20;99.90
2723;DHT22;1369;53.216;10.396;2023-11-18T03:42:07;5.20;99.90
2723;DHT22;1369;53.216;10.396;2023-11-18T03:44:33;5.20;99.90
2723;DHT22;1369;53.216;10.396;2023-11-18T03:46:59;5.20;99.90
2723;DHT22;1369;53.216;10.396;2023-11-18T03:49:25;5.20;99.90
2723;DHT22;1369;53.216;10.396;2023-11-18T03:51:50;5.10;99.90
2723;DHT22;1369;53.216;10.396;2023-11-18T03:54:16;5.10;99.90
2723;DHT22;1369;53.216;10.396;2023-11-18T03:56:42;5.10;99.90
2723;DHT22;1369;53.216;10.396;2023-11-18T03:59:08;5.10;99.90
2723;DHT22;1369;53.216;10.396;2023-11-18T04:01:34;5.00;99.90
2723;DHT22;1369;53.216;10.396;2023-11-18T04:04:00;5.60;99.90
2723;DHT22;1369;53.216;10.396;2023-11-18T04:06:26;5.00;99.90
2723;DHT22;1369;53.216;10.396;2023-11-18T04:08:52;5.20;99.90
2723;DHT22;1369;53.216;10.396;2023-11-18T04:11:18;5.00;99.90
2723;DHT22;1369;53.216;10.396;2023-11-18T04:13:44;5.00;99.90
2723;DHT22;1369;53.216;10.396;2023-11-18T04:16:14;5.00;99.90
2723;DHT22;1369;53.216;10.396;2023-11-18T04:18:43;4.90;99.90
2723;DHT22;1369;53.216;10.396;2023-11-18T04:21:10;5.00;99.90
2723;DHT22;1369;53.216;10.396;2023-11-18T04:23:40;6.00;99.90
2723;DHT22;1369;53.216;10.396;2023-11-18T04:26:07;4.90;99.90
2723;DHT22;1369;53.216;10.396;2023-11-18T04:28:36;4.90;99.90
2723;DHT22;1369;53.216;10.396;2023-11-18T04:31:02;4.90;99.90
2723;DHT22;1369;53.216;10.396;2023-11-18T04:33:28;4.90;99.90
2723;DHT22;1369;53.216;10.396;2023-11-18T04:35:54;4.90;99.90
2723;DHT22;1369;53.216;10.396;2023-11-18T04:38:22;5.10;99.90
2723;DHT22;1369;53.216;10.396;2023-11-18T04:40:48;4.80;99.90
2723;DHT22;1369;53.216;10.396;2023-11-18T04:43:13;5.50;99.90
2723;DHT22;1369;53.216;10.396;2023-11-18T04:45:42;4.90;99.90
2723;DHT22;1369;53.216;10.396;2023-11-18T04:48:07;4.90;99.90
2723;DHT22;1369;53.216;10.396;2023-11-18T04:50:34;4.80;99.90
2723;DHT22;1369;53.216;10.396;2023-11-18T04:53:00;4.80;99.90
2723;DHT22;1369;53.216;10.396;2023-11-18T04:55:25;4.80;99.90
2723;DHT22;1369;53.216;10.396;2023-11-18T04:57:52;4.70;99.90
2723;DHT22;1369;53.216;10.396;2023-11-18T05:00:17;4.60;99.90
2723;DHT22;1369;53.216;10.396;2023-11-18T05:02:45;4.80;99.90
2723;DHT22;1369;53.216;10.396;2023-11-18T05:05:13;4.50;99.90
2723;DHT22;1369;53.216;10.396;2023-11-18T05:07:40;5.10;99.90
2723;DHT22;1369;53.216;10.396;2023-11-18T05:10:06;4.20;99.90
2723;DHT22;1369;53.216;10.396;2023-11-18T05:12:33;4.10;99.90
2723;DHT22;1369;53.216;10.396;2023-11-18T05:14:59;4.00;99.90
2723;DHT22;1369;53.216;10.396;2023-11-18T05:17:26;3.90;99.90
2723;DHT22;1369;53.216;10.396;2023-11-18T05:19:52;3.80;99.90
2723;DHT22;1369;53.216;10.396;2023-11-18T05:22:18;3.60;99.90
2723;DHT22;1369;53.216;10.396;2023-11-18T05:24:44;3.50;99.90
2723;DHT22;1369;53.216;10.396;2023-11-18T05:27:09;3.40;99.90
2723;DHT22;1369;53.216;10.396;2023-11-18T05:29:35;3.40;99.90
2723;DHT22;1369;53.216;10.396;2023-11-18T05:32:00;3.30;99.90
2723;DHT22;1369;53.216;10.396;2023-11-18T05:34:26;3.30;99.90
2723;DHT22;1369;53.216;10.396;2023-11-18T05:36:51;3.10;99.90
2723;DHT22;1369;53.216;10.396;2023-11-18T05:39:23;3.00;99.90
2723;DHT22;1369;53.216;10.396;2023-11-18T05:41:49;2.90;99.90
2723;DHT22;1369;53.216;10.396;2023-11-18T05:44:16;2.90;99.90
2723;DHT22;1369;53.216;10.396;2023-11-18T05:46:45;2.80;99.90
2723;DHT22;1369;53.216;10.396;2023-11-18T05:49:17;2.80;99.90
2723;DHT22;1369;53.216;10.396;2023-11-18T05:51:43;2.70;99.90
2723;DHT22;1369;53.216;10.396;2023-11-18T05:54:10;2.70;99.90
2723;DHT22;1369;53.216;10.396;2023-11-18T05:56:36;2.70;99.90
2723;DHT22;1369;53.216;10.396;2023-11-18T05:59:02;2.60;99.90
2723;DHT22;1369;53.216;10.396;2023-11-18T06:01:31;2.60;99.90
2723;DHT22;1369;53.216;10.396;2023-11-18T06:03:56;2.60;99.90
2723;DHT22;1369;53.216;10.396;2023-11-18T06:06:22;2.50;99.90
2723;DHT22;1369;53.216;10.396;2023-11-18T06:08:48;2.40;99.90
2723;DHT22;1369;53.216;10.396;2023-11-18T06:11:15;2.40;99.90
2723;DHT22;1369;53.216;10.396;2023-11-18T06:13:49;2.50;99.90
2723;DHT22;1369;53.216;10.396;2023-11-18T06:16:17;2.50;99.90
2723;DHT22;1369;53.216;10.396;2023-11-18T06:18:45;2.50;99.90
2723;DHT22;1369;53.216;10.396;2023-11-18T06:21:16;2.50;99.90
2723;DHT22;1369;53.216;10.396;2023-11-18T06:23:42;2.60;99.90
2723;DHT22;1369;53.216;10.396;2023-11-18T06:26:09;2.70;99.90
2723;DHT22;1369;53.216;10.396;2023-11-18T06:28:41;2.60;99.90
2723;DHT22;1369;53.216;10.396;2023-11-18T06:31:07;2.60;99.90
2723;DHT22;1369;53.216;10.396;2023-11-18T06:33:40;2.50;99.90
2723;DHT22;1369;53.216;10.396;2023-11-18T06:38:41;2.40;99.90
2723;DHT22;1369;53.216;10.396;2023-11-18T06:41:07;2.20;99.90
2723;DHT22;1369;53.216;10.396;2023-11-18T06:43:38;2.20;99.90
2723;DHT22;1369;53.216;10.396;2023-11-18T06:46:32;2.20;99.90
2723;DHT22;1369;53.216;10.396;2023-11-18T06:49:00;2.20;99.90
2723;DHT22;1369;53.216;10.396;2023-11-18T06:51:30;2.10;99.90
2723;DHT22;1369;53.216;10.396;2023-11-18T06:53:58;2.10;99.90
2723;DHT22;1369;53.216;10.396;2023-11-18T06:56:24;2.10;99.90
2723;DHT22;1369;53.216;10.396;2023-11-18T06:58:50;2.00;99.90
2723;DHT22;1369;53.216;10.396;2023-11-18T07:01:16;2.00;99.90
2723;DHT22;1369;53.216;10.396;2023-11-18T07:03:43;2.00;99.90
2723;DHT22;1369;53.216;10.396;2023-11-18T07:06:09;1.90;99.90
2723;DHT22;1369;53.216;10.396;2023-11-18T07:08:35;1.90;99.90
2723;DHT22;1369;53.216;10.396;2023-11-18T07:11:02;1.90;99.90
2723;DHT22;1369;53.216;10.396;2023-11-18T07:13:28;1.90;99.90
2723;DHT22;1369;53.216;10.396;2023-11-18T07:15:53;1.80;99.90
2723;DHT22;1369;53.216;10.396;2023-11-18T07:18:22;1.90;99.90
2723;DHT22;1369;53.216;10.396;2023-11-18T07:20:48;2.00;99.90
2723;DHT22;1369;53.216;10.396;2023-11-18T07:23:16;2.00;99.90
2723;DHT22;1369;53.216;10.396;2023-11-18T07:25:43;2.00;99.90
2723;DHT22;1369;53.216;10.396;2023-11-18T07:28:13;2.00;99.90
2723;DHT22;1369;53.216;10.396;2023-11-18T07:30:43;2.00;99.90
2723;DHT22;1369;53.216;10.396;2023-11-18T07:33:13;2.10;99.90
2723;DHT22;1369;53.216;10.396;2023-11-18T07:35:39;2.10;99.90
2723;DHT22;1369;53.216;10.396;2023-11-18T07:38:05;2.10;99.90
2723;DHT22;1369;53.216;10.396;2023-11-18T07:40:33;2.10;99.90
2723;DHT22;1369;53.216;10.396;2023-11-18T07:43:00;2.00;99.90
2723;DHT22;1369;53.216;10.396;2023-11-18T07:45:28;2.10;99.90
2723;DHT22;1369;53.216;10.396;2023-11-18T07:47:59;2.30;99.90
2723;DHT22;1369;53.216;10.396;2023-11-18T07:50:25;2.30;99.90
2723;DHT22;1369;53.216;10.396;2023-11-18T07:52:52;2.40;99.90
2723;DHT22;1369;53.216;10.396;2023-11-18T07:55:17;2.50;99.90
2723;DHT22;1369;53.216;10.396;2023-11-18T07:57:43;2.60;99.90
2723;DHT22;1369;53.216;10.396;2023-11-18T08:00:09;2.60;99.90
2723;DHT22;1369;53.216;10.396;2023-11-18T08:02:36;2.70;99.90
2723;DHT22;1369;53.216;10.396;2023-11-18T08:05:03;2.70;99.90
2723;DHT22;1369;53.216;10.396;2023-11-18T08:07:33;2.70;99.90
2723;DHT22;1369;53.216;10.396;2023-11-18T08:09:59;2.70;99.90
2723;DHT22;1369;53.216;10.396;2023-11-18T08:12:24;2.80;99.90
2723;DHT22;1369;53.216;10.396;2023-11-18T08:14:50;2.80;99.90
2723;DHT22;1369;53.216;10.396;2023-11-18T08:17:16;2.80;99.90
2723;DHT22;1369;53.216;10.396;2023-11-18T08:19:41;2.80;99.90
2723;DHT22;1369;53.216;10.396;2023-11-18T08:22:07;2.90;99.90
2723;DHT22;1369;53.216;10.396;2023-11-18T08:24:34;3.10;99.90
2723;DHT22;1369;53.216;10.396;2023-11-18T08:27:02;3.30;99.90
2723;DHT22;1369;53.216;10.396;2023-11-18T08:29:29;3.30;99.90
2723;DHT22;1369;53.216;10.396;2023-11-18T08:31:57;3.30;99.90
2723;DHT22;1369;53.216;10.396;2023-11-18T08:34:23;3.40;99.90
2723;DHT22;1369;53.216;10.396;2023-11-18T08:36:51;3.50;99.90
2723;DHT22;1369;53.216;10.396;2023-11-18T08:39:17;3.60;99.90
2723;DHT22;1369;53.216;10.396;2023-11-18T08:41:46;3.80;99.90
2723;DHT22;1369;53.216;10.396;2023-11-18T08:44:11;3.80;99.90
2723;DHT22;1369;53.216;10.396;2023-11-18T08:46:40;3.90;99.90
2723;DHT22;1369;53.216;10.396;2023-11-18T08:49:07;4.00;99.90
2723;DHT22;1369;53.216;10.396;2023-11-18T08:51:40;4.10;99.90
2723;DHT22;1369;53.216;10.396;2023-11-18T08:54:07;4.10;99.90
2723;DHT22;1369;53.216;10.396;2023-11-18T08:56:50;4.20;99.90
2723;DHT22;1369;53.216;10.396;2023-11-18T08:59:18;4.40;99.90
2723;DHT22;1369;53.216;10.396;2023-11-18T09:01:50;4.50;99.90
2723;DHT22;1369;53.216;10.396;2023-11-18T09:04:21;4.50;99.90
2723;DHT22;1369;53.216;10.396;2023-11-18T09:06:47;4.40;99.90
2723;DHT22;1369;53.216;10.396;2023-11-18T09:09:13;4.40;99.90
2723;DHT22;1369;53.216;10.396;2023-11-18T09:11:41;4.30;99.90
2723;DHT22;1369;53.216;10.396;2023-11-18T09:14:07;4.20;99.90
2723;DHT22;1369;53.216;10.396;2023-11-18T09:16:34;4.30;99.90
2723;DHT22;1369;53.216;10.396;2023-11-18T09:19:04;4.40;99.90
2723;DHT22;1369;53.216;10.396;2023-11-18T09:21:31;4.50;99.90
2723;DHT22;1369;53.216;10.396;2023-11-18T09:24:01;4.60;99.90
2723;DHT22;1369;53.216;10.396;2023-11-18T09:26:30;4.70;99.90
2723;DHT22;1369;53.216;10.396;2023-11-18T09:28:56;4.80;99.90
2723;DHT22;1369;53.216;10.396;2023-11-18T09:31:22;5.00;99.90
2723;DHT22;1369;53.216;10.396;2023-11-18T09:33:48;5.10;99.90
2723;DHT22;1369;53.216;10.396;2023-11-18T09:36:22;5.20;99.90
2723;DHT22;1369;53.216;10.396;2023-11-18T09:38:48;5.30;99.90
2723;DHT22;1369;53.216;10.396;2023-11-18T09:41:19;5.40;99.90
2723;DHT22;1369;53.216;10.396;2023-11-18T09:43:49;5.40;99.90
2723;DHT22;1369;53.216;10.396;2023-11-18T09:46:28;5.30;99.90
2723;DHT22;1369;53.216;10.396;2023-11-18T09:49:24;5.40;99.90
2723;DHT22;1369;53.216;10.396;2023-11-18T09:51:59;5.50;99.90
2723;DHT22;1369;53.216;10.396;2023-11-18T09:54:47;5.60;99.90
2723;DHT22;1369;53.216;10.396;2023-11-18T09:57:33;5.60;99.90
2723;DHT22;1369;53.216;10.396;2023-11-18T10:00:06;5.70;99.90
2723;DHT22;1369;53.216;10.396;2023-11-18T10:02:50;5.70;99.90
2723;DHT22;1369;53.216;10.396;2023-11-18T10:05:17;5.60;99.90
2723;DHT22;1369;53.216;10.396;2023-11-18T10:07:46;5.70;99.90
2723;DHT22;1369;53.216;10.396;2023-11-18T10:10:13;5.80;99.90
2723;DHT22;1369;53.216;10.396;2023-11-18T10:12:46;5.70;99.90
2723;DHT22;1369;53.216;10.396;2023-11-18T10:15:18;5.90;99.90
2723;DHT22;1369;53.216;10.396;2023-11-18T10:17:45;6.30;99.90
2723;DHT22;1369;53.216;10.396;2023-11-18T10:20:46;5.90;99.90
2723;DHT22;1369;53.216;10.396;2023-11-18T10:23:13;6.10;99.90
2723;DHT22;1369;53.216;10.396;2023-11-18T10:25:55;6.00;99.90
2723;DHT22;1369;53.216;10.396;2023-11-18T10:28:30;6.10;99.90
2723;DHT22;1369;53.216;10.396;2023-11-18T10:31:03;6.10;99.90
2723;DHT22;1369;53.216;10.396;2023-11-18T10:33:34;6.20;99.90
2723;DHT22;1369;53.216;10.396;2023-11-18T10:36:01;6.30;99.90
2723;DHT22;1369;53.216;10.396;2023-11-18T10:38:30;6.20;99.90
2723;DHT22;1369;53.216;10.396;2023-11-18T10:40:59;6.20;99.90
2723;DHT22;1369;53.216;10.396;2023-11-18T10:43:28;6.30;99.90
2723;DHT22;1369;53.216;10.396;2023-11-18T10:46:08;6.30;99.90
2723;DHT22;1369;53.216;10.396;2023-11-18T10:48:47;6.30;99.90
2723;DHT22;1369;53.216;10.396;2023-11-18T10:51:15;6.40;99.90
2723;DHT22;1369;53.216;10.396;2023-11-18T10:53:42;6.40;99.90
2723;DHT22;1369;53.216;10.396;2023-11-18T10:56:23;6.40;99.90
2723;DHT22;1369;53.216;10.396;2023-11-18T10:59:07;6.40;99.90
2723;DHT22;1369;53.216;10.396;2023-11-18T11:01:37;6.50;99.90
2723;DHT22;1369;53.216;10.396;2023-11-18T11:04:15;6.60;99.90
2723;DHT22;1369;53.216;10.396;2023-11-18T11:06:49;6.60;99.90
2723;DHT22;1369;53.216;10.396;2023-11-18T11:09:21;6.60;99.90
2723;DHT22;1369;53.216;10.396;2023-11-18T11:12:00;6.70;99.90
2723;DHT22;1369;53.216;10.396;2023-11-18T11:14:34;6.70;99.90
2723;DHT22;1369;53.216;10.396;2023-11-18T11:17:13;7.40;99.90
2723;DHT22;1369;53.216;10.396;2023-11-18T11:20:05;6.60;99.90
2723;DHT22;1369;53.216;10.396;2023-11-18T11:28:22;6.80;99.90
2723;DHT22;1369;53.216;10.396;2023-11-18T11:31:01;6.80;99.90
2723;DHT22;1369;53.216;10.396;2023-11-18T11:33:41;6.90;99.90
2723;DHT22;1369;53.216;10.396;2023-11-18T11:36:15;7.60;99.90
2723;DHT22;1369;53.216;10.396;2023-11-18T11:38:43;7.00;99.90
2723;DHT22;1369;53.216;10.396;2023-11-18T11:41:14;6.70;99.90
2723;DHT22;1369;53.216;10.396;2023-11-18T11:43:48;7.60;99.90
2723;DHT22;1369;53.216;10.396;2023-11-18T11:46:15;6.70;99.90
2723;DHT22;1369;53.216;10.396;2023-11-18T11:48:46;6.60;99.90
2723;DHT22;1369;53.216;10.396;2023-11-18T11:51:19;6.60;99.90
2723;DHT22;1369;53.216;10.396;2023-11-18T11:54:00;6.60;99.90
2723;DHT22;1369;53.216;10.396;2023-11-18T11:56:43;7.40;99.90
2723;DHT22;1369;53.216;10.396;2023-11-18T11:59:09;6.60;99.90
2723;DHT22;1369;53.216;10.396;2023-11-18T12:01:38;7.00;99.90
2723;DHT22;1369;53.216;10.396;2023-11-18T12:04:05;7.30;99.90
2723;DHT22;1369;53.216;10.396;2023-11-18T12:06:41;6.70;99.90
2723;DHT22;1369;53.216;10.396;2023-11-18T12:09:09;7.60;99.90
2723;DHT22;1369;53.216;10.396;2023-11-18T12:11:37;6.90;99.90
2723;DHT22;1369;53.216;10.396;2023-11-18T12:14:11;6.80;99.90
2723;DHT22;1369;53.216;10.396;2023-11-18T12:17:09;7.30;99.90
2723;DHT22;1369;53.216;10.396;2023-11-18T12:19:41;6.70;99.90
2723;DHT22;1369;53.216;10.396;2023-11-18T12:22:12;6.70;99.90
2723;DHT22;1369;53.216;10.396;2023-11-18T12:24:40;6.60;99.90
2723;DHT22;1369;53.216;10.396;2023-11-18T12:27:07;6.60;99.90
2723;DHT22;1369;53.216;10.396;2023-11-18T12:29:43;6.50;99.90
2723;DHT22;1369;53.216;10.396;2023-11-18T12:32:10;6.40;99.90
2723;DHT22;1369;53.216;10.396;2023-11-18T12:34:52;6.40;99.90
2723;DHT22;1369;53.216;10.396;2023-11-18T12:48:21;6.40;99.90
2723;DHT22;1369;53.216;10.396;2023-11-18T12:50:53;6.50;99.90
2723;DHT22;1369;53.216;10.396;2023-11-18T12:53:21;6.40;99.90
2723;DHT22;1369;53.216;10.396;2023-11-18T12:55:49;6.50;99.90
2723;DHT22;1369;53.216;10.396;2023-11-18T12:58:16;6.50;99.90
2723;DHT22;1369;53.216;10.396;2023-11-18T13:00:43;6.50;99.90
2723;DHT22;1369;53.216;10.396;2023-11-18T13:03:10;6.50;99.90
2723;DHT22;1369;53.216;10.396;2023-11-18T13:05:37;6.50;99.90
2723;DHT22;1369;53.216;10.396;2023-11-18T13:08:04;6.50;99.90
2723;DHT22;1369;53.216;10.396;2023-11-18T13:10:30;6.50;99.90
2723;DHT22;1369;53.216;10.396;2023-11-18T13:12:56;6.40;99.90
2723;DHT22;1369;53.216;10.396;2023-11-18T13:15:25;7.20;99.90
2723;DHT22;1369;53.216;10.396;2023-11-18T13:18:04;6.40;99.90
2723;DHT22;1369;53.216;10.396;2023-11-18T13:20:33;6.40;99.90
2723;DHT22;1369;53.216;10.396;2023-11-18T13:23:02;6.50;99.90
2723;DHT22;1369;53.216;10.396;2023-11-18T13:25:37;6.90;99.90
2723;DHT22;1369;53.216;10.396;2023-11-18T13:28:10;6.50;99.90
2723;DHT22;1369;53.216;10.396;2023-11-18T13:30:37;6.50;99.90
2723;DHT22;1369;53.216;10.396;2023-11-18T13:33:04;6.50;99.90
2723;DHT22;1369;53.216;10.396;2023-11-18T13:35:30;6.50;99.90
2723;DHT22;1369;53.216;10.396;2023-11-18T13:37:55;6.50;99.90
2723;DHT22;1369;53.216;10.396;2023-11-18T13:40:21;7.00;99.90
2723;DHT22;1369;53.216;10.396;2023-11-18T13:43:01;7.40;99.90
2723;DHT22;1369;53.216;10.396;2023-11-18T13:45:28;6.40;99.90
2723;DHT22;1369;53.216;10.396;2023-11-18T13:47:56;6.50;99.90
2723;DHT22;1369;53.216;10.396;2023-11-18T13:50:23;6.70;99.90
2723;DHT22;1369;53.216;10.396;2023-11-18T13:52:50;6.80;99.90
2723;DHT22;1369;53.216;10.396;2023-11-18T13:55:16;6.40;99.90
2723;DHT22;1369;53.216;10.396;2023-11-18T13:57:57;6.60;99.90
2723;DHT22;1369;53.216;10.396;2023-11-18T14:00:26;6.40;99.90
2723;DHT22;1369;53.216;10.396;2023-11-18T14:02:54;6.40;99.90
2723;DHT22;1369;53.216;10.396;2023-11-18T14:05:22;7.10;99.90
2723;DHT22;1369;53.216;10.396;2023-11-18T14:07:53;6.30;99.90
2723;DHT22;1369;53.216;10.396;2023-11-18T14:10:22;6.30;99.90
2723;DHT22;1369;53.216;10.396;2023-11-18T14:13:04;6.30;99.90
2723;DHT22;1369;53.216;10.396;2023-11-18T14:15:34;6.90;99.90
2723;DHT22;1369;53.216;10.396;2023-11-18T14:18:03;6.20;99.90
2723;DHT22;1369;53.216;10.396;2023-11-18T14:20:29;6.20;99.90
2723;DHT22;1369;53.216;10.396;2023-11-18T14:22:57;6.20;99.90
2723;DHT22;1369;53.216;10.396;2023-11-18T14:25:27;6.20;99.90
2723;DHT22;1369;53.216;10.396;2023-11-18T14:27:52;6.10;99.90
2723;DHT22;1369;53.216;10.396;2023-11-18T14:30:18;6.50;99.90
2723;DHT22;1369;53.216;10.396;2023-11-18T14:32:45;6.10;99.90
2723;DHT22;1369;53.216;10.396;2023-11-18T14:35:12;6.10;99.90
2723;DHT22;1369;53.216;10.396;2023-11-18T14:37:45;6.80;99.90
2723;DHT22;1369;53.216;10.396;2023-11-18T14:40:12;6.10;99.90
2723;DHT22;1369;53.216;10.396;2023-11-18T14:42:47;6.40;99.90
2723;DHT22;1369;53.216;10.396;2023-11-18T14:45:16;6.10;99.90
2723;DHT22;1369;53.216;10.396;2023-11-18T14:47:43;6.30;99.90
2723;DHT22;1369;53.216;10.396;2023-11-18T14:50:13;6.00;99.90
2723;DHT22;1369;53.216;10.396;2023-11-18T14:52:46;6.60;99.90
2723;DHT22;1369;53.216;10.396;2023-11-18T14:55:11;6.00;99.90
2723;DHT22;1369;53.216;10.396;2023-11-18T14:57:41;6.00;99.90
2723;DHT22;1369;53.216;10.396;2023-11-18T15:00:07;5.90;99.90
2723;DHT22;1369;53.216;10.396;2023-11-18T15:02:34;5.90;99.90
2723;DHT22;1369;53.216;10.396;2023-11-18T15:05:02;5.90;99.90
2723;DHT22;1369;53.216;10.396;2023-11-18T15:07:30;5.90;99.90
2723;DHT22;1369;53.216;10.396;2023-11-18T15:09:55;5.80;99.90
2723;DHT22;1369;53.216;10.396;2023-11-18T15:12:23;5.80;99.90
2723;DHT22;1369;53.216;10.396;2023-11-18T15:14:48;6.00;99.90
2723;DHT22;1369;53.216;10.396;2023-11-18T15:17:14;5.80;99.90
2723;DHT22;1369;53.216;10.396;2023-11-18T15:19:40;5.80;99.90
2723;DHT22;1369;53.216;10.396;2023-11-18T15:22:05;5.70;99.90
2723;DHT22;1369;53.216;10.396;2023-11-18T15:24:31;5.70;99.90
2723;DHT22;1369;53.216;10.396;2023-11-18T15:26:58;5.80;99.90
2723;DHT22;1369;53.216;10.396;2023-11-18T15:29:26;5.70;99.90
2723;DHT22;1369;53.216;10.396;2023-11-18T15:31:58;6.40;99.90
2723;DHT22;1369;53.216;10.396;2023-11-18T15:34:24;5.70;99.90
2723;DHT22;1369;53.216;10.396;2023-11-18T15:36:50;5.80;99.90
2723;DHT22;1369;53.216;10.396;2023-11-18T15:39:17;5.80;99.90
2723;DHT22;1369;53.216;10.396;2023-11-18T15:41:44;5.70;99.90
2723;DHT22;1369;53.216;10.396;2023-11-18T15:44:09;5.70;99.90
2723;DHT22;1369;53.216;10.396;2023-11-18T15:46:38;5.70;99.90
2723;DHT22;1369;53.216;10.396;2023-11-18T15:49:04;5.80;99.90
2723;DHT22;1369;53.216;10.396;2023-11-18T15:51:29;6.30;99.90
2723;DHT22;1369;53.216;10.396;2023-11-18T15:53:56;5.80;99.90
2723;DHT22;1369;53.216;10.396;2023-11-18T15:56:22;5.70;99.90
2723;DHT22;1369;53.216;10.396;2023-11-18T15:58:48;6.50;99.90
2723;DHT22;1369;53.216;10.396;2023-11-18T16:01:14;5.70;99.90
2723;DHT22;1369;53.216;10.396;2023-11-18T16:03:39;6.70;99.90
2723;DHT22;1369;53.216;10.396;2023-11-18T16:06:06;6.70;99.90
2723;DHT22;1369;53.216;10.396;2023-11-18T16:08:31;5.80;99.90
2723;DHT22;1369;53.216;10.396;2023-11-18T16:10:57;6.20;99.90
2723;DHT22;1369;53.216;10.396;2023-11-18T16:13:22;5.80;99.90
2723;DHT22;1369;53.216;10.396;2023-11-18T16:15:48;6.50;99.90
2723;DHT22;1369;53.216;10.396;2023-11-18T16:18:14;6.00;99.90
2723;DHT22;1369;53.216;10.396;2023-11-18T16:20:39;5.80;99.90
2723;DHT22;1369;53.216;10.396;2023-11-18T16:23:05;5.80;99.90
2723;DHT22;1369;53.216;10.396;2023-11-18T16:25:31;5.80;99.90
2723;DHT22;1369;53.216;10.396;2023-11-18T16:27:58;5.80;99.90
2723;DHT22;1369;53.216;10.396;2023-11-18T16:30:26;6.30;99.90